createdAt,value
2018-08-09T00:02:03.166Z,101314.43
2018-08-09T00:05:07.377Z,101318.74
2018-08-09T00:08:11.577Z,101316.77
2018-08-09T00:11:15.789Z,101317.48
2018-08-09T00:14:20.006Z,101320.69
2018-08-09T00:17:24.224Z,101323.66
2018-08-09T00:20:28.444Z,101324.11
2018-08-09T00:23:32.620Z,101328.46
2018-08-09T00:26:36.837Z,101338.61
2018-08-09T00:29:41.027Z,101332.84
2018-08-09T00:32:45.227Z,101325.72
2018-08-09T00:35:49.412Z,101332.58
2018-08-09T00:38:53.732Z,101332.02
2018-08-09T00:41:57.961Z,101329.53
2018-08-09T00:45:02.172Z,101328.99
2018-08-09T00:48:06.501Z,101331.48
2018-08-09T00:51:10.716Z,101338.09
2018-08-09T00:54:14.913Z,101335.35
2018-08-09T00:57:19.129Z,101342.75
2018-08-09T01:00:23.348Z,101338.69
2018-08-09T01:03:27.540Z,101343.08
2018-08-09T01:06:31.752Z,101348.63
2018-08-09T01:09:35.957Z,101351.40
2018-08-09T01:12:40.172Z,101342.88
2018-08-09T01:15:44.484Z,101348.38
2018-08-09T01:18:48.707Z,101341.27
2018-08-09T01:21:52.930Z,101349.59
2018-08-09T01:24:57.158Z,101346.08
2018-08-09T01:28:01.373Z,101344.81
2018-08-09T01:31:05.593Z,101353.94
2018-08-09T01:34:10.738Z,101351.72
2018-08-09T01:37:14.960Z,101348.11
2018-08-09T01:40:19.169Z,101354.06
2018-08-09T01:43:40.636Z,101345.47
2018-08-09T01:46:44.845Z,101352.03
2018-08-09T01:49:49.048Z,101350.36
2018-08-09T01:52:53.262Z,101345.12
2018-08-09T01:55:57.657Z,101352.80
2018-08-09T01:59:01.878Z,101359.66
2018-08-09T02:02:06.141Z,101361.29
2018-08-09T02:05:10.849Z,101362.63
2018-08-09T02:08:15.073Z,101368.59
2018-08-09T02:11:19.264Z,101376.27
2018-08-09T02:14:23.497Z,101372.41
2018-08-09T02:17:27.711Z,101377.06
2018-08-09T02:20:32.005Z,101375.16
2018-08-09T02:23:36.197Z,101374.64
2018-08-09T02:26:40.382Z,101371.08
2018-08-09T02:29:44.601Z,101369.43
2018-08-09T02:32:48.863Z,101371.92
2018-08-09T02:35:53.074Z,101371.08
2018-08-09T02:38:57.289Z,101366.96
2018-08-09T02:42:01.513Z,101378.52
2018-08-09T02:45:05.732Z,101376.83
2018-08-09T02:48:09.934Z,101367.53
2018-08-09T02:51:14.162Z,101378.84
2018-08-09T02:54:18.382Z,101376.71
2018-08-09T02:57:22.600Z,101376.45
2018-08-09T03:00:26.830Z,101383.06
2018-08-09T03:03:31.053Z,101383.94
2018-08-09T03:06:35.334Z,101383.95
2018-08-09T03:09:39.584Z,101385.92
2018-08-09T03:12:43.842Z,101390.91
2018-08-09T03:15:48.064Z,101392.28
2018-08-09T03:18:52.646Z,101396.13
2018-08-09T03:21:56.911Z,101386.20
2018-08-09T03:25:01.157Z,101386.76
2018-08-09T03:28:05.393Z,101392.52
2018-08-09T03:31:09.619Z,101400.11
2018-08-09T03:34:13.861Z,101399.47
2018-08-09T03:37:18.061Z,101404.10
2018-08-09T03:40:22.300Z,101395.25
2018-08-09T03:43:26.537Z,101397.13
2018-08-09T03:46:30.777Z,101396.54
2018-08-09T03:49:35.118Z,101394.07
2018-08-09T03:52:39.326Z,101394.38
2018-08-09T03:55:43.587Z,101397.13
2018-08-09T03:58:47.806Z,101391.07
2018-08-09T04:01:52.018Z,101388.66
2018-08-09T04:04:56.282Z,101392.61
2018-08-09T04:08:00.482Z,101395.63
2018-08-09T04:11:04.748Z,101397.31
2018-08-09T04:14:09.320Z,101392.09
2018-08-09T04:17:18.975Z,101390.14
2018-08-09T04:20:23.246Z,101389.58
2018-08-09T04:23:27.441Z,101391.73
2018-08-09T04:26:31.732Z,101390.39
2018-08-09T04:29:35.940Z,101395.61
2018-08-09T04:32:40.173Z,101385.97
2018-08-09T04:35:44.471Z,101391.20
2018-08-09T04:38:48.716Z,101396.20
2018-08-09T04:41:53.018Z,101397.06
2018-08-09T04:44:57.246Z,101391.87
2018-08-09T04:48:01.509Z,101390.83
2018-08-09T04:51:05.746Z,101394.44
2018-08-09T04:54:09.985Z,101398.39
2018-08-09T04:57:14.224Z,101389.07
2018-08-09T05:00:18.472Z,101395.16
2018-08-09T05:03:22.689Z,101396.02
2018-08-09T05:06:26.930Z,101397.74
2018-08-09T05:09:31.155Z,101403.03
2018-08-09T05:12:35.397Z,101404.17
2018-08-09T05:15:39.628Z,101408.89
2018-08-09T05:18:43.874Z,101404.84
2018-08-09T05:21:48.141Z,101401.84
2018-08-09T05:24:52.358Z,101402.45
2018-08-09T05:27:56.603Z,101405.80
2018-08-09T05:31:00.829Z,101401.73
2018-08-09T05:34:05.152Z,101406.97
2018-08-09T05:37:09.346Z,101414.45
2018-08-09T05:40:13.636Z,101415.63
2018-08-09T05:43:17.885Z,101422.84
2018-08-09T05:46:22.126Z,101423.72
2018-08-09T05:49:26.408Z,101428.23
2018-08-09T05:52:30.623Z,101430.80
2018-08-09T05:55:34.829Z,101439.44
2018-08-09T05:58:39.061Z,101446.17
2018-08-09T06:01:43.338Z,101447.94
2018-08-09T06:04:47.583Z,101443.63
2018-08-09T06:07:51.808Z,101444.21
2018-08-09T06:10:56.061Z,101449.77
2018-08-09T06:14:00.307Z,101451.75
2018-08-09T06:17:04.545Z,101449.36
2018-08-09T06:20:08.761Z,101454.34
2018-08-09T06:23:13.028Z,101456.61
2018-08-09T06:26:17.276Z,101467.11
2018-08-09T06:29:21.486Z,101476.58
2018-08-09T06:32:25.698Z,101461.51
2018-08-09T06:35:29.913Z,101466.53
2018-08-09T06:38:34.097Z,101469.61
2018-08-09T06:41:39.031Z,101461.95
2018-08-09T06:44:43.240Z,101471.06
2018-08-09T06:47:47.451Z,101475.81
2018-08-09T06:50:51.673Z,101473.90
2018-08-09T06:53:55.885Z,101472.86
2018-08-09T06:57:00.091Z,101482.81
2018-08-09T07:00:05.804Z,101494.73
2018-08-09T07:03:09.976Z,101492.03
2018-08-09T07:06:14.212Z,101488.75
2018-08-09T07:09:18.404Z,101500.09
2018-08-09T07:12:22.617Z,101500.94
2018-08-09T07:15:26.830Z,101516.92
2018-08-09T07:18:31.085Z,101494.90
2018-08-09T07:21:35.316Z,101488.02
2018-08-09T07:24:39.548Z,101496.34
2018-08-09T07:27:43.740Z,101504.11
2018-08-09T07:30:47.960Z,101494.45
2018-08-09T07:33:52.228Z,101492.53
2018-08-09T07:36:56.482Z,101485.91
2018-08-09T07:40:00.714Z,101477.13
2018-08-09T07:43:04.976Z,101475.75
2018-08-09T07:46:09.857Z,101474.06
2018-08-09T07:49:14.097Z,101461.34
2018-08-09T07:52:18.314Z,101455.22
2018-08-09T07:55:22.553Z,101449.67
2018-08-09T07:58:26.921Z,101451.05
2018-08-09T08:01:31.147Z,101445.77
2018-08-09T08:04:35.372Z,101446.57
2018-08-09T08:07:39.609Z,101436.02
2018-08-09T08:10:43.844Z,101438.73
2018-08-09T08:13:48.072Z,101440.34
2018-08-09T08:16:52.316Z,101428.62
2018-08-09T08:19:56.548Z,101428.23
2018-08-09T08:23:00.772Z,101422.86
2018-08-09T08:26:05.082Z,101426.63
2018-08-09T08:29:09.336Z,101425.14
2018-08-09T08:32:13.561Z,101425.24
2018-08-09T08:35:17.801Z,101416.50
2018-08-09T08:38:22.045Z,101416.95
2018-08-09T08:41:26.314Z,101422.87
2018-08-09T08:44:30.554Z,101425.93
2018-08-09T08:47:34.779Z,101426.53
2018-08-09T08:50:38.998Z,101426.87
2018-08-09T08:53:43.249Z,101419.77
2018-08-09T08:56:47.496Z,101417.54
2018-08-09T08:59:51.752Z,101422.21
2018-08-09T09:02:55.977Z,101409.93
2018-08-09T09:06:00.193Z,101416.73
2018-08-09T09:09:07.882Z,101425.09
2018-08-09T09:12:12.104Z,101411.66
2018-08-09T09:15:16.552Z,101429.12
2018-08-09T09:18:20.800Z,101418.53
2018-08-09T09:21:25.049Z,101422.41
2018-08-09T09:24:29.372Z,101423.18
2018-08-09T09:27:33.700Z,101422.46
2018-08-09T09:30:37.962Z,101421.38
2018-08-09T09:33:42.184Z,101415.03
2018-08-09T09:36:46.485Z,101408.70
2018-08-09T09:39:50.727Z,101412.97
2018-08-09T09:42:55.006Z,101396.59
2018-08-09T09:45:59.256Z,101386.87
2018-08-09T09:49:03.582Z,101386.56
2018-08-09T09:52:07.805Z,101386.42
2018-08-09T09:55:12.043Z,101383.84
2018-08-09T09:58:16.342Z,101373.08
2018-08-09T10:01:25.728Z,101373.61
2018-08-09T10:04:29.977Z,101366.34
2018-08-09T10:07:34.217Z,101357.53
2018-08-09T10:10:38.460Z,101357.92
2018-08-09T10:13:42.721Z,101346.32
2018-08-09T10:16:46.971Z,101343.66
2018-08-09T10:19:51.249Z,101341.70
2018-08-09T10:22:55.444Z,101344.04
2018-08-09T10:25:59.686Z,101333.84
2018-08-09T10:29:03.941Z,101329.10
2018-08-09T10:32:08.171Z,101327.07
2018-08-09T10:35:12.573Z,101317.22
2018-08-09T10:38:16.794Z,101319.06
2018-08-09T10:41:21.008Z,101318.83
2018-08-09T10:44:25.232Z,101303.69
2018-08-09T10:47:29.437Z,101296.69
2018-08-09T10:50:33.675Z,101294.91
2018-08-09T10:53:37.910Z,101298.14
2018-08-09T10:56:42.128Z,101308.72
2018-08-09T10:59:46.341Z,101322.67
2018-08-09T11:02:50.552Z,101329.34
2018-08-09T11:05:54.769Z,101323.59
2018-08-09T11:08:59.009Z,101331.59
2018-08-09T11:12:03.232Z,101332.79
2018-08-09T11:15:10.653Z,101314.11
2018-08-09T11:18:14.781Z,101319.84
2018-08-09T11:21:19.025Z,101317.05
2018-08-09T11:24:23.245Z,101310.48
2018-08-09T11:27:27.457Z,101304.19
2018-08-09T11:30:31.680Z,101292.91
2018-08-09T11:33:35.933Z,101293.42
2018-08-09T11:36:40.138Z,101290.20
2018-08-09T11:39:44.351Z,101288.30
2018-08-09T11:42:48.559Z,101290.84
2018-08-09T11:45:52.780Z,101281.14
2018-08-09T11:48:56.973Z,101273.84
2018-08-09T11:52:01.186Z,101264.61
2018-08-09T11:55:05.417Z,101254.97
2018-08-09T11:58:09.695Z,101259.86
2018-08-09T12:01:13.897Z,101249.08
2018-08-09T12:04:18.189Z,101246.37
2018-08-09T12:07:22.395Z,101256.05
2018-08-09T12:10:26.616Z,101257.52
2018-08-09T12:13:30.881Z,101251.62
2018-08-09T12:16:35.468Z,101249.09
2018-08-09T12:19:39.702Z,101236.87
2018-08-09T12:22:43.931Z,101235.09
2018-08-09T12:25:48.178Z,101229.52
2018-08-09T12:28:52.378Z,101220.02
2018-08-09T12:31:56.620Z,101220.02
2018-08-09T12:35:00.841Z,101202.22
2018-08-09T12:38:05.080Z,101202.49
2018-08-09T12:41:09.309Z,101194.27
2018-08-09T12:44:13.541Z,101198.52
2018-08-09T12:47:17.741Z,101204.84
2018-08-09T12:50:21.950Z,101189.87
2018-08-09T12:53:26.201Z,101200.02
2018-08-09T12:56:30.541Z,101201.22
2018-08-09T12:59:34.756Z,101186.45
2018-08-09T13:02:39.137Z,101181.61
2018-08-09T13:05:43.425Z,101169.02
2018-08-09T13:08:47.605Z,101165.72
2018-08-09T13:11:51.842Z,101161.98
2018-08-09T13:14:56.092Z,101158.63
2018-08-09T13:18:00.305Z,101153.75
2018-08-09T13:21:04.545Z,101158.27
2018-08-09T13:24:08.801Z,101149.57
2018-08-09T13:27:13.104Z,101131.34
2018-08-09T13:30:17.354Z,101128.24
2018-08-09T13:33:21.554Z,101115.37
2018-08-09T13:36:26.153Z,101120.63
2018-08-09T13:39:30.366Z,101116.59
2018-08-09T13:42:34.621Z,101117.06
2018-08-09T13:45:38.813Z,101110.73
2018-08-09T13:48:43.027Z,101114.08
2018-08-09T13:51:47.268Z,101107.51
2018-08-09T13:54:51.506Z,101106.36
2018-08-09T13:57:55.770Z,101087.70
2018-08-09T14:00:59.973Z,101092.95
2018-08-09T14:04:04.215Z,101103.70
2018-08-09T14:07:08.937Z,101086.78
2018-08-09T14:10:13.381Z,101069.95
2018-08-09T14:13:17.596Z,101062.84
2018-08-09T14:16:21.833Z,101066.70
2018-08-09T14:19:26.056Z,101066.75
2018-08-09T14:22:30.274Z,101060.86
2018-08-09T14:25:34.475Z,101043.98
2018-08-09T14:28:38.711Z,101037.37
2018-08-09T14:31:42.933Z,101024.51
2018-08-09T14:34:47.185Z,101029.57
2018-08-09T14:37:51.487Z,101025.08
2018-08-09T14:40:55.655Z,101008.98
2018-08-09T14:43:59.868Z,101004.55
2018-08-09T14:47:04.121Z,101003.88
2018-08-09T14:50:08.519Z,101009.53
2018-08-09T14:53:12.765Z,101000.28
2018-08-09T14:56:16.996Z,100988.63
2018-08-09T14:59:21.212Z,100968.77
2018-08-09T15:02:25.613Z,100956.77
2018-08-09T15:05:29.844Z,100951.42
2018-08-09T15:08:34.052Z,100934.88
2018-08-09T15:11:38.292Z,100923.67
2018-08-09T15:14:42.510Z,100911.92
2018-08-09T15:17:46.749Z,100912.03
2018-08-09T15:20:50.999Z,100909.07
2018-08-09T15:23:55.258Z,100905.66
2018-08-09T15:26:59.475Z,100889.93
2018-08-09T15:30:03.731Z,100884.97
2018-08-09T15:33:07.985Z,100869.88
2018-08-09T15:36:12.229Z,100848.64
2018-08-09T15:39:16.896Z,100833.27
2018-08-09T15:42:21.129Z,100820.69
2018-08-09T15:45:25.340Z,100815.26
2018-08-09T15:48:29.590Z,100791.09
2018-08-09T15:51:33.817Z,100798.55
2018-08-09T15:54:38.064Z,100801.69
2018-08-09T15:57:42.293Z,100824.83
2018-08-09T16:00:46.508Z,100804.13
2018-08-09T16:03:50.778Z,100802.14
2018-08-09T16:06:54.995Z,100805.20
2018-08-09T16:09:59.229Z,100829.16
2018-08-09T16:13:03.445Z,100846.46
2018-08-09T16:16:07.754Z,100848.72
2018-08-09T16:19:11.924Z,100839.38
2018-08-09T16:22:16.159Z,100834.66
2018-08-09T16:25:20.804Z,100819.38
2018-08-09T16:28:25.058Z,100791.62
2018-08-09T16:31:29.309Z,100772.29
2018-08-09T16:34:33.553Z,100765.14
2018-08-09T16:37:37.957Z,100741.05
2018-08-09T16:40:42.203Z,100719.59
2018-08-09T16:43:46.461Z,100704.72
2018-08-09T16:46:50.748Z,100708.02
2018-08-09T16:49:54.972Z,100714.52
2018-08-09T16:52:59.216Z,100713.72
2018-08-09T16:56:03.517Z,100698.48
2018-08-09T16:59:07.741Z,100694.17
2018-08-09T17:02:11.985Z,100680.32
2018-08-09T17:05:21.589Z,100670.34
2018-08-09T17:08:25.853Z,100669.18
2018-08-09T17:11:30.063Z,100653.88
2018-08-09T17:14:34.296Z,100654.72
2018-08-09T17:17:38.569Z,100646.80
2018-08-09T17:20:42.799Z,100641.55
2018-08-09T17:23:47.046Z,100636.34
2018-08-09T17:26:51.268Z,100619.78
2018-08-09T17:29:55.489Z,100615.07
2018-08-09T17:33:00.013Z,100607.63
2018-08-09T17:36:04.253Z,100594.84
2018-08-09T17:39:11.509Z,100582.59
2018-08-09T17:42:15.763Z,100551.70
2018-08-09T17:45:22.738Z,100532.14
2018-08-09T17:48:26.989Z,100505.30
2018-08-09T17:51:31.193Z,100504.44
2018-08-09T17:54:35.412Z,100503.40
2018-08-09T17:57:40.533Z,100510.46
2018-08-09T18:00:44.794Z,100497.75
2018-08-09T18:03:49.051Z,100474.95
2018-08-09T18:06:53.276Z,100455.88
2018-08-09T18:09:57.493Z,100458.02
2018-08-09T18:13:01.785Z,100442.78
2018-08-09T18:16:06.192Z,100451.16
2018-08-09T18:19:10.443Z,100760.86
2018-08-09T18:22:14.716Z,100788.60
2018-08-09T18:25:18.913Z,100607.05
2018-08-09T18:28:23.124Z,100616.07
2018-08-09T18:31:27.305Z,100643.33
2018-08-09T18:34:31.512Z,100630.33
2018-08-09T18:37:35.720Z,100625.88
2018-08-09T18:40:39.937Z,100618.31
2018-08-09T18:43:44.193Z,100631.23
2018-08-09T18:46:48.402Z,100616.00
2018-08-09T18:49:52.612Z,100585.03
2018-08-09T18:52:57.113Z,100561.22
2018-08-09T18:56:01.341Z,100557.97
2018-08-09T18:59:05.632Z,100554.49
2018-08-09T19:02:09.865Z,100567.70
2018-08-09T19:05:14.192Z,100554.78
2018-08-09T19:08:18.385Z,100549.06
2018-08-09T19:11:22.724Z,100528.13
2018-08-09T19:14:26.942Z,100532.55
2018-08-09T19:17:31.168Z,100533.60
2018-08-09T19:20:36.356Z,100524.49
2018-08-09T19:23:40.580Z,100506.27
2018-08-09T19:26:44.874Z,100504.59
2018-08-09T19:29:49.197Z,100510.41
2018-08-09T19:32:53.467Z,100506.27
2018-08-09T19:35:57.720Z,100491.97
2018-08-09T19:39:02.055Z,100496.36
2018-08-09T19:42:06.194Z,100507.90
2018-08-09T19:45:14.402Z,100491.05
2018-08-09T19:48:18.679Z,100485.82
2018-08-09T19:51:22.909Z,100486.91
2018-08-09T19:54:27.129Z,100487.75
2018-08-09T19:57:31.369Z,100483.66
2018-08-09T20:00:35.604Z,100485.92
2018-08-09T20:03:39.854Z,100484.30
2018-08-09T20:06:44.138Z,100480.74
2018-08-09T20:09:48.353Z,100479.41
2018-08-09T20:12:52.565Z,100492.39
2018-08-09T20:15:56.841Z,100499.59
2018-08-09T20:19:01.054Z,100503.47
2018-08-09T20:22:07.483Z,100492.73
2018-08-09T20:25:12.615Z,100497.95
2018-08-09T20:28:16.817Z,100486.09
2018-08-09T20:31:21.045Z,100474.84
2018-08-09T20:34:25.257Z,100488.63
2018-08-09T20:37:29.464Z,100486.96
2018-08-09T20:40:33.685Z,100481.41
2018-08-09T20:43:37.885Z,100475.61
2018-08-09T20:46:42.118Z,100478.91
2018-08-09T20:49:46.318Z,100476.15
2018-08-09T20:52:51.103Z,100463.53
2018-08-09T20:55:55.340Z,100455.84
2018-08-09T20:58:59.587Z,100456.94
2018-08-09T21:02:03.868Z,100450.59
2018-08-09T21:05:08.073Z,100437.09
2018-08-09T21:08:12.298Z,100431.62
2018-08-09T21:11:16.541Z,100437.09
2018-08-09T21:14:20.780Z,100429.86
2018-08-09T21:17:24.992Z,100425.64
2018-08-09T21:20:29.214Z,100417.59
2018-08-09T21:23:33.462Z,100414.25
2018-08-09T21:26:37.674Z,100421.10
2018-08-09T21:29:42.660Z,100411.91
2018-08-09T21:32:47.368Z,100406.91
2018-08-09T21:35:51.628Z,100398.25
2018-08-09T21:38:55.906Z,100396.56
2018-08-09T21:42:00.126Z,100391.83
2018-08-09T21:45:05.614Z,100389.05
2018-08-09T21:48:09.887Z,100393.42
2018-08-09T21:51:14.106Z,100377.66
2018-08-09T21:54:18.384Z,100383.95
2018-08-09T21:57:22.637Z,100377.06
2018-08-09T22:01:04.228Z,100375.38
2018-08-09T22:04:08.442Z,100366.19
2018-08-09T22:07:17.857Z,100365.70
2018-08-09T22:10:27.402Z,100366.85
2018-08-09T22:13:36.973Z,100367.08
2018-08-09T22:16:46.529Z,100369.31
2018-08-09T22:19:56.027Z,100363.55
2018-08-09T22:23:00.258Z,100352.52
2018-08-09T22:26:04.499Z,100359.41
2018-08-09T22:29:08.754Z,100370.14
2018-08-09T22:32:12.957Z,100372.02
2018-08-09T22:35:17.215Z,100355.75
2018-08-09T22:38:21.426Z,100367.33
2018-08-09T22:41:25.649Z,100369.84
2018-08-09T22:44:29.894Z,100375.91
2018-08-09T22:47:34.116Z,100363.45
2018-08-09T22:50:38.341Z,100356.55
2018-08-09T22:53:42.601Z,100363.73
2018-08-09T22:56:46.821Z,100355.95
2018-08-09T22:59:51.040Z,100349.63
2018-08-09T23:02:55.328Z,100335.55
2018-08-09T23:05:59.574Z,100341.65
2018-08-09T23:09:04.126Z,100331.20
2018-08-09T23:12:08.367Z,100332.84
2018-08-09T23:15:12.789Z,100329.78
2018-08-09T23:18:17.009Z,100326.97
2018-08-09T23:21:21.205Z,100336.86
2018-08-09T23:24:25.430Z,100335.16
2018-08-09T23:27:29.644Z,100338.47
2018-08-09T23:30:33.856Z,100330.73
2018-08-09T23:33:38.088Z,100329.13
2018-08-09T23:36:42.305Z,100331.02
2018-08-09T23:39:46.542Z,100332.34
2018-08-09T23:42:50.766Z,100335.05
2018-08-09T23:45:54.989Z,100327.67
2018-08-09T23:48:59.207Z,100330.48
2018-08-09T23:52:03.514Z,100319.22
2018-08-09T23:55:13.565Z,100324.51
2018-08-09T23:58:49.217Z,100323.23
